createdAt,value
2023-01-15T00:00:30.464Z,7.00
2023-01-15T00:02:58.721Z,7.00
2023-01-15T00:05:27.013Z,7.00
2023-01-15T00:07:55.605Z,7.00
2023-01-15T00:10:27.359Z,7.00
2023-01-15T00:12:56.867Z,7.00
2023-01-15T00:15:24.933Z,7.00
2023-01-15T00:17:52.982Z,6.90
2023-01-15T00:20:22.243Z,6.90
2023-01-15T00:22:50.327Z,6.90
2023-01-15T00:25:36.019Z,6.90
2023-01-15T00:28:05.758Z,6.90
2023-01-15T00:30:34.573Z,6.90
2023-01-15T00:33:02.727Z,6.90
2023-01-15T00:35:30.886Z,6.90
2023-01-15T00:38:00.212Z,6.90
2023-01-15T00:40:28.651Z,6.80
2023-01-15T00:42:57.369Z,6.80
2023-01-15T00:45:26.798Z,6.80
2023-01-15T00:47:55.159Z,6.80
2023-01-15T00:50:23.331Z,6.80
2023-01-15T00:52:51.489Z,6.70
2023-01-15T00:55:19.989Z,6.80
2023-01-15T00:57:48.100Z,6.70
2023-01-15T01:00:16.861Z,6.70
2023-01-15T01:02:46.398Z,6.60
2023-01-15T01:05:14.495Z,6.60
2023-01-15T01:07:42.746Z,6.50
2023-01-15T01:10:11.573Z,6.50
2023-01-15T01:12:40.384Z,6.40
2023-01-15T01:15:10.958Z,6.40
2023-01-15T01:17:39.532Z,6.30
2023-01-15T01:20:11.641Z,6.20
2023-01-15T01:22:39.912Z,6.10
2023-01-15T01:25:09.489Z,6.00
2023-01-15T01:27:37.751Z,6.00
2023-01-15T01:30:06.718Z,5.90
2023-01-15T01:32:35.279Z,5.90
2023-01-15T01:35:03.382Z,5.80
2023-01-15T01:37:32.827Z,5.90
2023-01-15T01:40:00.852Z,5.80
2023-01-15T01:42:28.944Z,5.80
2023-01-15T01:45:04.263Z,5.80
2023-01-15T01:47:34.223Z,5.80
2023-01-15T01:50:06.582Z,5.80
2023-01-15T01:52:42.467Z,5.80
2023-01-15T01:55:14.579Z,5.80
2023-01-15T01:57:43.245Z,5.70
2023-01-15T02:00:14.103Z,5.60
2023-01-15T02:02:45.264Z,5.60
2023-01-15T02:05:16.380Z,5.60
2023-01-15T02:07:45.873Z,5.60
2023-01-15T02:10:17.928Z,5.60
2023-01-15T02:12:54.008Z,5.50
2023-01-15T02:15:29.867Z,5.50
2023-01-15T02:18:07.137Z,5.50
2023-01-15T02:20:40.882Z,5.50
2023-01-15T02:23:32.160Z,5.50
2023-01-15T02:26:26.914Z,5.40
2023-01-15T02:28:59.396Z,5.50
2023-01-15T02:31:30.999Z,5.50
2023-01-15T02:34:03.579Z,5.50
2023-01-15T02:36:36.057Z,5.50
2023-01-15T02:39:10.651Z,5.60
2023-01-15T02:41:43.367Z,5.50
2023-01-15T02:44:15.931Z,5.50
2023-01-15T02:46:45.250Z,5.50
2023-01-15T02:49:19.619Z,5.50
2023-01-15T02:51:53.140Z,5.60
2023-01-15T02:54:22.464Z,5.60
2023-01-15T02:56:53.408Z,5.60
2023-01-15T02:59:25.896Z,5.70
2023-01-15T03:01:58.438Z,5.70
2023-01-15T03:04:32.982Z,5.70
2023-01-15T03:07:07.469Z,5.80
2023-01-15T03:09:36.575Z,5.80
2023-01-15T03:12:10.542Z,5.90
2023-01-15T03:14:45.985Z,6.00
2023-01-15T03:17:20.478Z,6.00
2023-01-15T03:19:55.261Z,5.90
2023-01-15T03:22:27.214Z,6.00
2023-01-15T03:24:58.227Z,6.00
2023-01-15T03:27:26.705Z,6.00
2023-01-15T03:30:03.020Z,6.00
2023-01-15T03:32:32.061Z,6.00
2023-01-15T03:35:00.454Z,6.00
2023-01-15T03:37:29.987Z,5.90
2023-01-15T03:40:00.176Z,5.90
2023-01-15T03:42:43.929Z,5.90
2023-01-15T03:45:20.465Z,5.80
2023-01-15T03:48:01.720Z,5.80
2023-01-15T03:50:42.401Z,5.90
2023-01-15T03:53:16.731Z,5.80
2023-01-15T03:55:49.703Z,5.80
2023-01-15T03:58:21.564Z,5.90
2023-01-15T04:00:53.939Z,5.90
2023-01-15T04:03:24.039Z,5.80
2023-01-15T04:05:53.821Z,5.80
2023-01-15T04:08:22.658Z,5.90
2023-01-15T04:10:54.910Z,5.90
2023-01-15T04:13:23.663Z,6.00
2023-01-15T04:15:54.177Z,6.00
2023-01-15T04:18:22.414Z,6.00
2023-01-15T04:20:50.753Z,6.10
2023-01-15T04:23:19.055Z,6.10
2023-01-15T04:25:47.203Z,6.10
2023-01-15T04:28:15.300Z,6.20
2023-01-15T04:30:44.437Z,6.20
2023-01-15T04:33:13.936Z,6.30
2023-01-15T04:35:42.013Z,6.30
2023-01-15T04:38:10.024Z,6.30
2023-01-15T04:40:58.963Z,6.30
2023-01-15T04:43:56.050Z,6.30
2023-01-15T04:46:25.012Z,6.30
2023-01-15T04:48:54.390Z,6.40
2023-01-15T04:51:25.415Z,6.30
2023-01-15T04:53:53.759Z,6.50
2023-01-15T04:56:21.868Z,6.50
2023-01-15T04:58:49.941Z,6.40
2023-01-15T05:01:19.316Z,6.40
2023-01-15T05:03:47.717Z,6.40
2023-01-15T05:06:18.577Z,6.50
2023-01-15T05:08:46.861Z,6.50
2023-01-15T05:11:14.873Z,6.50
2023-01-15T05:13:43.984Z,6.50
2023-01-15T05:16:15.136Z,6.50
2023-01-15T05:18:43.370Z,6.50
2023-01-15T05:21:22.990Z,6.60
2023-01-15T05:23:53.887Z,6.60
2023-01-15T05:26:23.482Z,6.50
2023-01-15T05:28:54.570Z,6.60
2023-01-15T05:31:23.410Z,6.50
2023-01-15T05:33:53.109Z,6.60
2023-01-15T05:36:25.006Z,6.60
2023-01-15T05:38:53.496Z,6.60
2023-01-15T05:41:40.661Z,6.60
2023-01-15T05:44:11.064Z,6.60
2023-01-15T05:46:41.052Z,6.60
2023-01-15T05:49:11.116Z,6.60
2023-01-15T05:51:41.398Z,6.70
2023-01-15T05:54:12.584Z,6.70
2023-01-15T05:56:41.377Z,6.80
2023-01-15T05:59:09.804Z,6.80
2023-01-15T06:01:38.307Z,6.80
2023-01-15T06:04:07.664Z,6.90
2023-01-15T06:06:36.794Z,6.90
2023-01-15T06:09:06.744Z,7.00
2023-01-15T06:11:34.857Z,7.00
2023-01-15T06:14:03.000Z,7.10
2023-01-15T06:16:31.068Z,7.10
2023-01-15T06:19:04.066Z,7.10
2023-01-15T06:21:33.293Z,7.20
2023-01-15T06:24:01.659Z,7.40
2023-01-15T06:26:31.148Z,7.30
2023-01-15T06:28:59.635Z,7.40
2023-01-15T06:31:27.983Z,7.40
2023-01-15T06:33:56.704Z,7.40
2023-01-15T06:36:26.532Z,7.40
2023-01-15T06:38:54.892Z,7.40
2023-01-15T06:41:42.090Z,7.40
2023-01-15T06:44:31.944Z,7.50
2023-01-15T06:47:20.266Z,7.40
2023-01-15T06:49:49.111Z,7.50
2023-01-15T06:52:17.191Z,7.50
2023-01-15T06:54:45.881Z,7.50
2023-01-15T06:57:13.936Z,7.50
2023-01-15T06:59:43.437Z,7.60
2023-01-15T07:02:11.830Z,7.60
2023-01-15T07:04:39.829Z,7.70
2023-01-15T07:07:08.234Z,7.70
2023-01-15T07:09:36.439Z,7.70
2023-01-15T07:12:04.642Z,7.70
2023-01-15T07:14:33.208Z,7.70
2023-01-15T07:17:02.828Z,7.80
2023-01-15T07:19:31.340Z,8.00
2023-01-15T07:21:59.331Z,8.00
2023-01-15T07:24:27.393Z,8.10
2023-01-15T07:26:55.528Z,8.10
2023-01-15T07:29:23.818Z,8.30
2023-01-15T07:31:52.678Z,8.60
2023-01-15T07:34:22.261Z,8.70
2023-01-15T07:36:50.542Z,9.20
2023-01-15T07:39:18.674Z,9.50
2023-01-15T07:42:04.726Z,9.70
2023-01-15T07:44:50.292Z,9.90
2023-01-15T07:47:39.233Z,10.00
2023-01-15T07:50:11.179Z,10.30
2023-01-15T07:52:39.678Z,10.50
2023-01-15T07:55:10.141Z,10.60
2023-01-15T07:57:38.864Z,10.70
2023-01-15T08:00:08.553Z,10.70
2023-01-15T08:02:36.628Z,10.70
2023-01-15T08:05:05.090Z,10.80
2023-01-15T08:07:38.420Z,10.80
2023-01-15T08:10:07.426Z,10.90
2023-01-15T08:12:52.732Z,10.80
2023-01-15T08:15:21.416Z,10.80
2023-01-15T08:17:51.622Z,10.80
2023-01-15T08:20:21.643Z,10.80
2023-01-15T08:22:51.369Z,10.80
2023-01-15T08:25:21.882Z,10.90
2023-01-15T08:27:50.555Z,10.90
2023-01-15T08:30:22.088Z,10.90
2023-01-15T08:32:50.245Z,10.90
2023-01-15T08:35:18.509Z,10.90
2023-01-15T08:37:46.609Z,11.00
2023-01-15T08:40:16.701Z,11.00
2023-01-15T08:42:44.789Z,11.10
2023-01-15T08:45:13.259Z,11.10
2023-01-15T08:47:41.408Z,11.00
2023-01-15T08:50:10.943Z,11.10
2023-01-15T08:52:39.755Z,11.00
2023-01-15T08:55:09.367Z,11.00
2023-01-15T08:57:38.960Z,10.90
2023-01-15T09:00:09.194Z,10.80
2023-01-15T09:02:37.419Z,10.70
2023-01-15T09:05:06.621Z,10.70
2023-01-15T09:07:35.478Z,10.70
2023-01-15T09:10:04.415Z,10.70
2023-01-15T09:12:32.758Z,10.70
2023-01-15T09:15:03.718Z,10.80
2023-01-15T09:17:33.961Z,11.00
2023-01-15T09:20:03.161Z,11.20
2023-01-15T09:22:31.792Z,11.30
2023-01-15T09:25:03.654Z,11.30
2023-01-15T09:27:34.130Z,11.40
2023-01-15T09:30:04.401Z,11.30
2023-01-15T09:32:33.133Z,11.50
2023-01-15T09:35:01.431Z,11.60
2023-01-15T09:37:29.562Z,11.60
2023-01-15T09:39:58.085Z,11.80
2023-01-15T09:42:38.447Z,11.90
2023-01-15T09:45:26.992Z,12.00
2023-01-15T09:48:19.554Z,12.10
2023-01-15T09:51:06.409Z,12.20
2023-01-15T09:53:47.565Z,12.30
2023-01-15T09:56:22.290Z,12.30
2023-01-15T09:58:52.264Z,12.30
2023-01-15T10:01:28.051Z,12.40
2023-01-15T10:04:02.263Z,12.40
2023-01-15T10:06:34.976Z,12.40
2023-01-15T10:09:11.534Z,12.20
2023-01-15T10:12:02.853Z,12.10
2023-01-15T10:14:44.709Z,11.90
2023-01-15T10:17:23.157Z,11.10
2023-01-15T10:19:51.418Z,10.10
2023-01-15T10:22:42.050Z,9.60
2023-01-15T10:25:17.067Z,9.30
2023-01-15T10:27:48.903Z,8.90
2023-01-15T10:30:18.958Z,8.60
2023-01-15T10:33:02.090Z,8.60
2023-01-15T10:35:41.627Z,8.50
2023-01-15T10:38:17.951Z,8.20
2023-01-15T10:41:07.700Z,7.90
2023-01-15T10:43:48.784Z,7.60
2023-01-15T10:46:20.141Z,7.60
2023-01-15T10:48:55.291Z,7.50
2023-01-15T10:51:26.583Z,7.30
2023-01-15T10:54:00.249Z,7.30
2023-01-15T10:56:34.231Z,7.10
2023-01-15T10:59:12.753Z,7.00
2023-01-15T11:01:41.656Z,6.90
2023-01-15T11:04:14.068Z,6.80
2023-01-15T11:06:42.608Z,6.60
2023-01-15T11:09:20.305Z,6.60
2023-01-15T11:12:08.954Z,6.50
2023-01-15T11:14:56.792Z,6.60
2023-01-15T11:17:45.310Z,6.60
2023-01-15T11:20:28.325Z,6.50
2023-01-15T11:22:57.307Z,6.50
2023-01-15T11:25:31.201Z,6.40
2023-01-15T11:28:00.929Z,6.30
2023-01-15T11:30:32.339Z,6.30
2023-01-15T11:33:04.219Z,6.20
2023-01-15T11:35:36.080Z,6.10
2023-01-15T11:38:09.416Z,6.00
2023-01-15T11:40:38.011Z,6.00
2023-01-15T11:43:38.897Z,6.10
2023-01-15T11:46:24.981Z,6.00
2023-01-15T11:49:10.499Z,6.00
2023-01-15T11:51:45.228Z,6.00
2023-01-15T11:54:16.404Z,6.00
2023-01-15T11:56:46.889Z,5.80
2023-01-15T11:59:19.816Z,5.80
2023-01-15T12:01:54.978Z,5.70
2023-01-15T12:04:38.132Z,5.50
2023-01-15T12:07:14.416Z,5.50
2023-01-15T12:10:00.725Z,5.40
2023-01-15T12:12:40.691Z,5.40
2023-01-15T12:15:24.699Z,5.50
2023-01-15T12:18:26.969Z,5.50
2023-01-15T12:21:03.678Z,5.50
2023-01-15T12:23:55.122Z,5.40
2023-01-15T12:26:27.527Z,5.40
2023-01-15T12:29:04.132Z,5.40
2023-01-15T12:31:39.384Z,5.40
2023-01-15T12:34:16.649Z,5.40
2023-01-15T12:36:48.989Z,5.30
2023-01-15T12:39:23.361Z,5.20
2023-01-15T12:42:13.178Z,5.20
2023-01-15T12:45:04.745Z,5.20
2023-01-15T12:47:39.807Z,5.20
2023-01-15T12:50:30.647Z,5.20
2023-01-15T12:53:04.313Z,5.20
2023-01-15T12:55:38.840Z,5.10
2023-01-15T12:58:18.648Z,5.10
2023-01-15T13:00:47.945Z,5.10
2023-01-15T13:03:27.993Z,5.10
2023-01-15T13:06:00.537Z,5.10
2023-01-15T13:08:34.398Z,5.10
2023-01-15T13:11:05.120Z,5.10
2023-01-15T13:13:37.136Z,5.10
2023-01-15T13:16:14.930Z,5.00
2023-01-15T13:18:53.600Z,5.10
2023-01-15T13:21:25.962Z,5.10
2023-01-15T13:24:14.248Z,5.10
2023-01-15T13:27:00.636Z,5.10
2023-01-15T13:29:40.310Z,5.10
2023-01-15T13:32:15.816Z,5.20
2023-01-15T13:34:48.561Z,5.20
2023-01-15T13:37:24.571Z,5.20
2023-01-15T13:39:54.935Z,5.20
2023-01-15T13:42:38.203Z,5.20
2023-01-15T13:45:26.686Z,5.20
2023-01-15T13:47:57.929Z,5.10
2023-01-15T13:50:31.120Z,5.10
2023-01-15T13:53:06.629Z,5.10
2023-01-15T13:55:38.016Z,5.10
2023-01-15T13:58:23.540Z,5.00
2023-01-15T14:01:03.067Z,4.90
2023-01-15T14:03:33.835Z,4.80
2023-01-15T14:06:07.705Z,4.60
2023-01-15T14:08:41.778Z,4.60
2023-01-15T14:11:35.777Z,4.50
2023-01-15T14:14:39.744Z,4.40
2023-01-15T14:17:21.487Z,4.40
2023-01-15T14:20:45.483Z,4.30
2023-01-15T14:23:34.850Z,4.20
2023-01-15T14:26:13.562Z,4.00
2023-01-15T14:28:56.604Z,3.80
2023-01-15T14:31:47.289Z,3.70
2023-01-15T14:34:19.044Z,3.60
2023-01-15T14:36:54.076Z,3.60
2023-01-15T14:39:41.645Z,3.50
2023-01-15T14:42:33.506Z,3.40
2023-01-15T14:45:06.918Z,3.40
2023-01-15T14:47:46.779Z,3.30
2023-01-15T14:50:33.596Z,3.30
2023-01-15T14:53:06.544Z,3.30
2023-01-15T14:55:35.227Z,3.20
2023-01-15T14:58:09.435Z,3.30
2023-01-15T15:00:40.695Z,3.20
2023-01-15T15:03:19.095Z,3.20
2023-01-15T15:05:48.827Z,3.20
2023-01-15T15:08:19.802Z,3.20
2023-01-15T15:10:54.778Z,3.20
2023-01-15T15:13:30.905Z,3.20
2023-01-15T15:16:08.399Z,3.20
2023-01-15T15:18:44.135Z,3.20
2023-01-15T15:21:20.010Z,3.10
2023-01-15T15:23:54.852Z,3.10
2023-01-15T15:26:27.647Z,3.10
2023-01-15T15:29:00.975Z,3.10
2023-01-15T15:31:32.348Z,3.10
2023-01-15T15:34:02.134Z,3.10
2023-01-15T15:36:33.100Z,3.10
2023-01-15T15:39:04.492Z,3.10
2023-01-15T15:41:53.850Z,3.10
2023-01-15T15:44:51.258Z,3.10
2023-01-15T15:47:39.375Z,3.10
2023-01-15T15:50:19.986Z,3.10
2023-01-15T15:52:50.926Z,3.10
2023-01-15T15:55:20.779Z,3.10
2023-01-15T15:57:52.160Z,3.10
2023-01-15T16:00:25.160Z,3.10
2023-01-15T16:02:53.748Z,3.10
2023-01-15T16:05:25.813Z,3.10
2023-01-15T16:07:55.335Z,3.10
2023-01-15T16:10:27.776Z,3.10
2023-01-15T16:12:58.869Z,3.10
2023-01-15T16:15:29.795Z,3.10
2023-01-15T16:17:58.858Z,3.10
2023-01-15T16:20:28.969Z,3.10
2023-01-15T16:23:00.184Z,3.10
2023-01-15T16:25:30.765Z,3.10
2023-01-15T16:27:59.201Z,3.20
2023-01-15T16:30:28.782Z,3.10
2023-01-15T16:33:01.984Z,3.10
2023-01-15T16:35:38.070Z,3.10
2023-01-15T16:38:07.543Z,3.10
2023-01-15T16:40:39.826Z,3.10
2023-01-15T16:43:10.943Z,3.20
2023-01-15T16:45:57.654Z,3.20
2023-01-15T16:48:33.973Z,3.20
2023-01-15T16:51:25.544Z,3.20
2023-01-15T16:53:55.130Z,3.20
2023-01-15T16:56:48.516Z,3.20
2023-01-15T16:59:18.598Z,3.20
2023-01-15T17:01:50.634Z,3.20
2023-01-15T17:04:25.475Z,3.20
2023-01-15T17:06:59.013Z,3.20
2023-01-15T17:09:29.906Z,3.20
2023-01-15T17:11:59.056Z,3.20
2023-01-15T17:14:29.782Z,3.30
2023-01-15T17:17:16.753Z,3.30
2023-01-15T17:19:45.202Z,3.30
2023-01-15T17:22:17.675Z,3.30
2023-01-15T17:24:51.482Z,3.30
2023-01-15T17:27:19.840Z,3.30
2023-01-15T17:29:48.125Z,3.40
2023-01-15T17:32:19.908Z,3.30
2023-01-15T17:34:48.068Z,3.40
2023-01-15T17:37:16.228Z,3.50
2023-01-15T17:39:44.489Z,3.40
2023-01-15T17:42:18.715Z,3.40
2023-01-15T17:44:47.493Z,3.40
2023-01-15T17:47:15.966Z,3.40
2023-01-15T17:49:44.255Z,3.40
2023-01-15T17:52:19.752Z,3.40
2023-01-15T17:55:05.699Z,3.40
2023-01-15T17:57:52.541Z,3.40
2023-01-15T18:00:38.909Z,3.40
2023-01-15T18:03:24.191Z,3.40
2023-01-15T18:05:53.115Z,3.30
2023-01-15T18:08:23.313Z,3.30
2023-01-15T18:10:51.647Z,3.30
2023-01-15T18:13:21.254Z,3.30
2023-01-15T18:15:50.426Z,3.30
2023-01-15T18:18:19.355Z,3.20
2023-01-15T18:20:47.504Z,3.20
2023-01-15T18:23:15.820Z,3.20
2023-01-15T18:25:46.295Z,3.20
2023-01-15T18:28:14.557Z,3.10
2023-01-15T18:30:44.323Z,3.10
2023-01-15T18:33:12.745Z,3.10
2023-01-15T18:35:40.923Z,3.10
2023-01-15T18:38:09.525Z,3.10
2023-01-15T18:40:37.654Z,3.00
2023-01-15T18:43:23.739Z,3.10
2023-01-15T18:46:10.622Z,3.00
2023-01-15T18:48:38.872Z,3.00
2023-01-15T18:51:11.096Z,3.00
2023-01-15T18:53:39.734Z,3.00
2023-01-15T18:56:08.462Z,3.00
2023-01-15T18:58:36.663Z,2.90
2023-01-15T19:01:09.629Z,2.90
2023-01-15T19:03:37.875Z,3.00
2023-01-15T19:06:11.326Z,2.90
2023-01-15T19:08:39.412Z,2.90
2023-01-15T19:11:12.930Z,2.90
2023-01-15T19:13:41.105Z,2.90
2023-01-15T19:16:29.603Z,2.90
2023-01-15T19:18:57.897Z,2.90
2023-01-15T19:21:27.221Z,2.80
2023-01-15T19:23:55.346Z,2.80
2023-01-15T19:26:23.510Z,2.80
2023-01-15T19:28:53.126Z,2.80
2023-01-15T19:31:39.254Z,2.80
2023-01-15T19:34:32.801Z,2.70
2023-01-15T19:37:00.145Z,2.70
2023-01-15T19:39:29.837Z,2.70
2023-01-15T19:42:16.652Z,2.60
2023-01-15T19:45:02.460Z,2.60
2023-01-15T19:47:53.728Z,2.60
2023-01-15T19:50:24.458Z,2.50
2023-01-15T19:52:54.067Z,2.60
2023-01-15T19:55:23.841Z,2.50
2023-01-15T19:57:58.486Z,2.50
2023-01-15T20:00:27.885Z,2.40
2023-01-15T20:02:58.438Z,2.50
2023-01-15T20:05:28.022Z,2.40
2023-01-15T20:07:56.712Z,2.40
2023-01-15T20:10:27.335Z,2.40
2023-01-15T20:13:13.134Z,2.30
2023-01-15T20:15:43.925Z,2.20
2023-01-15T20:18:14.147Z,2.30
2023-01-15T20:20:42.499Z,2.20
2023-01-15T20:23:10.724Z,2.20
2023-01-15T20:25:41.580Z,2.10
2023-01-15T20:28:09.743Z,2.10
2023-01-15T20:30:37.970Z,2.00
2023-01-15T20:33:06.331Z,2.00
2023-01-15T20:35:35.927Z,2.00
2023-01-15T20:38:07.047Z,2.00
2023-01-15T20:40:35.499Z,2.00
2023-01-15T20:43:21.233Z,1.90
2023-01-15T20:45:49.458Z,1.90
2023-01-15T20:48:35.865Z,1.90
2023-01-15T20:51:12.794Z,1.90
2023-01-15T20:53:42.286Z,1.80
2023-01-15T20:56:14.641Z,1.80
2023-01-15T20:58:43.190Z,1.90
2023-01-15T21:01:11.625Z,1.80
2023-01-15T21:03:40.389Z,1.70
2023-01-15T21:06:11.015Z,1.70
2023-01-15T21:08:40.877Z,1.70
2023-01-15T21:11:09.428Z,1.70
2023-01-15T21:13:41.179Z,1.70
2023-01-15T21:16:09.956Z,1.60
2023-01-15T21:18:39.078Z,1.60
2023-01-15T21:21:13.564Z,1.60
2023-01-15T21:23:45.529Z,1.60
2023-01-15T21:26:14.541Z,1.60
2023-01-15T21:28:44.363Z,1.60
2023-01-15T21:31:15.688Z,1.60
2023-01-15T21:33:44.072Z,1.50
2023-01-15T21:36:16.025Z,1.50
2023-01-15T21:38:44.455Z,1.50
2023-01-15T21:41:14.771Z,1.50
2023-01-15T21:44:02.115Z,1.60
2023-01-15T21:46:30.845Z,1.60
2023-01-15T21:49:00.342Z,1.50
2023-01-15T21:51:30.929Z,1.50
2023-01-15T21:54:00.405Z,1.40
2023-01-15T21:56:29.376Z,1.50
2023-01-15T21:58:57.689Z,1.40
2023-01-15T22:01:26.333Z,1.40
2023-01-15T22:03:54.931Z,1.40
2023-01-15T22:06:23.236Z,1.50
2023-01-15T22:08:55.505Z,1.50
2023-01-15T22:11:24.459Z,1.50
2023-01-15T22:13:53.973Z,1.50
2023-01-15T22:16:22.557Z,1.50
2023-01-15T22:18:51.156Z,1.50
2023-01-15T22:21:20.133Z,1.50
2023-01-15T22:23:49.295Z,1.50
2023-01-15T22:26:20.079Z,1.50
2023-01-15T22:28:49.091Z,1.50
2023-01-15T22:31:18.046Z,1.50
2023-01-15T22:33:46.949Z,1.50
2023-01-15T22:36:17.044Z,1.50
2023-01-15T22:38:46.919Z,1.50
2023-01-15T22:41:15.172Z,1.50
2023-01-15T22:43:44.772Z,1.50
2023-01-15T22:46:15.438Z,1.60
2023-01-15T22:48:43.688Z,1.60
2023-01-15T22:51:12.006Z,1.50
2023-01-15T22:53:40.211Z,1.60
2023-01-15T22:56:08.822Z,1.60
2023-01-15T22:58:40.767Z,1.60
2023-01-15T23:01:11.334Z,1.60
2023-01-15T23:03:39.764Z,1.60
2023-01-15T23:06:09.564Z,1.60
2023-01-15T23:08:38.119Z,1.50
2023-01-15T23:11:11.207Z,1.50
2023-01-15T23:13:39.685Z,1.50
2023-01-15T23:16:10.165Z,1.50
2023-01-15T23:18:38.399Z,1.50
2023-01-15T23:21:07.729Z,1.50
2023-01-15T23:23:37.098Z,1.50
2023-01-15T23:26:06.795Z,1.50
2023-01-15T23:28:35.335Z,1.50
2023-01-15T23:31:05.187Z,1.50
2023-01-15T23:33:34.828Z,1.50
2023-01-15T23:36:03.768Z,1.60
2023-01-15T23:38:32.045Z,1.50
2023-01-15T23:41:00.356Z,1.50
2023-01-15T23:43:45.737Z,1.50
2023-01-15T23:46:35.973Z,1.50
2023-01-15T23:49:07.331Z,1.30
2023-01-15T23:51:36.740Z,1.30
2023-01-15T23:54:06.036Z,1.20
2023-01-15T23:56:34.707Z,1.10
2023-01-15T23:59:03.115Z,1.00
